Time;durP1;ratioP1;P1;durP2;ratioP2;P2;SDS_P1;SDS_P2;PMS_P1;PMS_P2;Temp;Humidity;BMP_temperature;BMP_pressure;BME280_temperature;BME280_humidity;BME280_pressure;Samples;Min_cycle;Max_cycle;Signal;HPM_P1;HPM_P2
2023/07/29 00:00:23;;;;;;;;;;;;;;;19.00;57.21;96414.94;6173790;28;19937;-71
2023/07/29 00:03:27;;;;;;;;;;;;;;;19.01;57.13;96412.09;6173345;28;19926;-71
2023/07/29 00:06:33;;;;;;;;;;;;;;;19.04;56.86;96406.41;6173305;28;19926;-71
2023/07/29 00:09:37;;;;;;;;;;;;;;;18.99;57.46;96407.91;6173484;28;20408;-70
2023/07/29 00:12:39;;;;;;;;;;;;;;;18.98;57.06;96408.91;6172514;28;20311;-71
2023/07/29 00:15:45;;;;;;;;;;;;;;;18.98;56.36;96412.41;6173462;28;20343;-72
2023/07/29 00:18:49;;;;;;;;;;;;;;;18.98;56.74;96416.91;6172508;28;20075;-71
2023/07/29 00:21:54;;;;;;;;;;;;;;;18.95;56.98;96412.75;6173077;28;19926;-70
2023/07/29 00:24:59;;;;;;;;;;;;;;;18.95;56.39;96422.56;6173067;28;19922;-70
2023/07/29 00:28:02;;;;;;;;;;;;;;;18.94;57.50;96420.88;6172214;28;19933;-70
2023/07/29 00:31:05;;;;;;;;;;;;;;;18.94;56.76;96427.06;6172964;28;19963;-71
2023/07/29 00:34:08;;;;;;;;;;;;;;;18.94;56.97;96428.88;6172276;28;19976;-71
2023/07/29 00:37:10;;;;;;;;;;;;;;;18.89;56.82;96434.72;6155618;28;19933;-71
2023/07/29 00:40:16;;;;;;;;;;;;;;;18.83;57.28;96432.72;6172716;28;19933;-71
2023/07/29 00:43:17;;;;;;;;;;;;;;;18.80;57.15;96425.03;6172738;28;19930;-71
2023/07/29 00:46:21;;;;;;;;;;;;;;;18.78;57.26;96430.50;6172670;28;19933;-71
2023/07/29 00:49:27;;;;;;;;;;;;;;;18.81;58.18;96427.53;6172770;28;20410;-71
2023/07/29 00:52:28;;;;;;;;;;;;;;;18.87;57.40;96422.56;6154752;28;19937;-71
2023/07/29 00:55:29;;;;;;;;;;;;;;;18.91;57.65;96431.88;6154689;28;19933;-70
2023/07/29 00:58:30;;;;;;;;;;;;;;;18.98;57.37;96439.06;6171708;28;20351;-71
2023/07/29 01:01:35;;;;;;;;;;;;;;;19.00;57.03;96428.25;6172387;28;19926;-71
2023/07/29 01:04:37;;;;;;;;;;;;;;;19.04;57.10;96442.91;6171073;28;19932;-71
2023/07/29 01:07:53;;;;;;;;;;;;;;;19.06;56.81;96435.59;6172399;28;20392;-71
2023/07/29 01:11:09;;;;;;;;;;;;;;;19.10;56.55;96438.78;6172266;28;19926;-71
2023/07/29 01:14:31;;;;;;;;;;;;;;;19.12;56.59;96434.94;6154711;28;20308;-72
2023/07/29 01:17:40;;;;;;;;;;;;;;;19.13;56.42;96436.59;6122330;28;19933;-71
2023/07/29 01:20:43;;;;;;;;;;;;;;;19.15;57.19;96437.28;6172278;28;20024;-70
2023/07/29 01:23:45;;;;;;;;;;;;;;;19.20;55.91;96442.97;6172087;28;19926;-71
2023/07/29 01:26:48;;;;;;;;;;;;;;;19.24;56.27;96438.13;6172189;28;19926;-71
2023/07/29 01:29:52;;;;;;;;;;;;;;;19.28;56.15;96444.81;6172084;28;19926;-71
2023/07/29 01:33:13;;;;;;;;;;;;;;;19.30;56.45;96442.81;6154406;28;20431;-70
2023/07/29 01:36:25;;;;;;;;;;;;;;;19.34;56.45;96448.66;6171125;28;19933;-70
2023/07/29 01:39:29;;;;;;;;;;;;;;;19.36;56.63;96451.97;6172162;28;19929;-70
2023/07/29 01:42:34;;;;;;;;;;;;;;;19.39;56.74;96446.31;6172100;28;19926;-71
2023/07/29 01:45:38;;;;;;;;;;;;;;;19.46;56.70;96442.00;6172267;28;19928;-71
2023/07/29 01:48:42;;;;;;;;;;;;;;;19.51;56.70;96440.50;6176775;28;20384;-70
2023/07/29 01:51:43;;;;;;;;;;;;;;;19.56;56.54;96434.69;6176618;28;19926;-71
2023/07/29 01:54:52;;;;;;;;;;;;;;;19.64;56.22;96440.00;6176699;28;19926;-71
2023/07/29 01:57:53;;;;;;;;;;;;;;;19.72;55.43;96437.38;6176515;28;19926;-71
2023/07/29 02:00:56;;;;;;;;;;;;;;;19.81;55.86;96440.03;6176469;28;19926;-72
2023/07/29 02:03:57;;;;;;;;;;;;;;;19.87;56.05;96447.38;6176076;28;19937;-71
2023/07/29 02:07:03;;;;;;;;;;;;;;;19.95;56.05;96439.34;6176127;28;19926;-71
2023/07/29 02:10:05;;;;;;;;;;;;;;;20.02;56.07;96444.88;6175548;28;20316;-71
2023/07/29 02:13:11;;;;;;;;;;;;;;;20.11;56.32;96442.00;6158635;28;20323;-71
2023/07/29 02:16:18;;;;;;;;;;;;;;;20.17;55.49;96441.31;6159222;28;19934;-71
2023/07/29 02:19:19;;;;;;;;;;;;;;;20.27;55.64;96441.16;6175977;28;19932;-71
2023/07/29 02:22:24;;;;;;;;;;;;;;;20.36;55.84;96444.66;6159008;28;19926;-70
2023/07/29 02:25:27;;;;;;;;;;;;;;;20.44;55.92;96446.44;6175211;28;19933;-71
2023/07/29 02:28:31;;;;;;;;;;;;;;;20.52;55.91;96460.63;6175589;28;19933;-70
2023/07/29 02:31:36;;;;;;;;;;;;;;;20.63;55.29;96452.25;6175687;28;19926;-70
2023/07/29 02:34:40;;;;;;;;;;;;;;;20.74;54.45;96453.72;6175626;28;20020;-70
2023/07/29 02:37:41;;;;;;;;;;;;;;;20.84;54.63;96453.53;6175523;28;19933;-70
2023/07/29 02:40:44;;;;;;;;;;;;;;;20.94;54.88;96448.78;6175084;28;19933;-71
2023/07/29 02:43:48;;;;;;;;;;;;;;;21.08;54.13;96453.41;6158161;28;19922;-71
2023/07/29 02:46:54;;;;;;;;;;;;;;;21.20;54.58;96450.31;6175258;28;19930;-71
2023/07/29 02:50:00;;;;;;;;;;;;;;;21.28;54.22;96450.28;6175608;28;19930;-71
2023/07/29 02:53:06;;;;;;;;;;;;;;;21.45;53.87;96462.56;6175401;28;19926;-72
2023/07/29 02:56:12;;;;;;;;;;;;;;;21.59;53.96;96474.34;6174752;28;20315;-70
2023/07/29 02:59:18;;;;;;;;;;;;;;;21.70;53.53;96467.75;6157513;28;20388;-71
2023/07/29 03:02:19;;;;;;;;;;;;;;;21.85;53.66;96468.63;6174832;28;19926;-71
2023/07/29 03:05:20;;;;;;;;;;;;;;;21.95;53.34;96469.22;6149088;28;19926;-72
2023/07/29 03:08:22;;;;;;;;;;;;;;;22.04;53.37;96472.66;6150223;28;20025;-71
2023/07/29 03:11:27;;;;;;;;;;;;;;;22.16;53.04;96465.03;6149630;28;20393;-72
2023/07/29 03:14:31;;;;;;;;;;;;;;;22.27;52.93;96467.28;6149190;28;20078;-71
2023/07/29 03:17:35;;;;;;;;;;;;;;;22.41;52.50;96474.53;6150780;28;20032;-71
2023/07/29 03:20:36;;;;;;;;;;;;;;;22.55;52.44;96458.63;6151090;28;20460;-71
2023/07/29 03:23:40;;;;;;;;;;;;;;;22.66;51.94;96471.59;6150548;28;19931;-71
2023/07/29 03:26:42;;;;;;;;;;;;;;;22.81;52.07;96469.72;6150342;28;19985;-71
2023/07/29 03:29:45;;;;;;;;;;;;;;;22.95;51.57;96473.44;6150758;28;20141;-70
2023/07/29 03:32:46;;;;;;;;;;;;;;;23.04;51.54;96476.84;6149332;28;20451;-71
2023/07/29 03:35:51;;;;;;;;;;;;;;;23.17;51.16;96479.72;6150335;28;19927;-71
2023/07/29 03:38:56;;;;;;;;;;;;;;;23.28;50.84;96476.53;6150121;28;19926;-71
2023/07/29 03:42:17;;;;;;;;;;;;;;;23.41;50.36;96475.88;6150241;28;20309;-72
2023/07/29 03:45:21;;;;;;;;;;;;;;;23.54;50.13;96480.53;6150059;28;20392;-71
2023/07/29 03:48:24;;;;;;;;;;;;;;;23.65;49.98;96477.34;6149761;28;19938;-72
2023/07/29 03:51:30;;;;;;;;;;;;;;;23.84;49.50;96477.78;6149846;28;20033;-72
2023/07/29 03:54:33;;;;;;;;;;;;;;;23.97;49.01;96486.78;6149804;28;20012;-72
2023/07/29 03:57:34;;;;;;;;;;;;;;;24.02;49.33;96483.53;6149457;28;19927;-71
2023/07/29 04:00:39;;;;;;;;;;;;;;;24.14;48.99;96483.81;6148028;28;20320;-71
2023/07/29 04:03:45;;;;;;;;;;;;;;;24.29;48.42;96472.97;6159562;28;20308;-72
2023/07/29 04:06:49;;;;;;;;;;;;;;;24.42;48.08;96479.28;6173527;28;19949;-71
2023/07/29 04:09:52;;;;;;;;;;;;;;;24.52;47.98;96473.59;6172231;28;19952;-71
2023/07/29 04:12:54;;;;;;;;;;;;;;;24.59;47.90;96474.47;6173064;28;19926;-71
2023/07/29 04:16:00;;;;;;;;;;;;;;;24.73;47.36;96474.56;6155859;28;19934;-72
2023/07/29 04:19:03;;;;;;;;;;;;;;;24.85;46.99;96475.66;6172586;28;19926;-71
2023/07/29 04:22:04;;;;;;;;;;;;;;;24.96;46.47;96464.31;6172955;28;20029;-70
2023/07/29 04:25:11;;;;;;;;;;;;;;;25.03;46.69;96470.59;6173011;28;19930;-70
2023/07/29 04:28:13;;;;;;;;;;;;;;;25.19;46.15;96465.91;6172959;28;19942;-72
2023/07/29 04:31:14;;;;;;;;;;;;;;;25.35;45.51;96467.41;6172056;28;19926;-71
2023/07/29 04:34:17;;;;;;;;;;;;;;;25.49;44.86;96469.94;6172285;28;20016;-72
2023/07/29 04:37:18;;;;;;;;;;;;;;;25.65;44.85;96465.22;6172779;28;20396;-72
2023/07/29 04:40:19;;;;;;;;;;;;;;;25.86;43.76;96475.84;6171993;28;19933;-71
2023/07/29 04:43:26;;;;;;;;;;;;;;;26.52;42.96;96469.66;6172784;28;19926;-71
2023/07/29 04:46:29;;;;;;;;;;;;;;;29.18;38.54;96478.81;6172817;28;20373;-73
2023/07/29 04:49:33;;;;;;;;;;;;;;;32.41;34.61;96489.78;6155066;28;20012;-71
2023/07/29 04:52:35;;;;;;;;;;;;;;;35.60;31.75;96501.88;6171924;28;19933;-72
2023/07/29 04:55:36;;;;;;;;;;;;;;;38.47;29.04;96502.22;6171430;28;19933;-72
2023/07/29 04:58:39;;;;;;;;;;;;;;;40.88;27.65;96513.03;6171800;28;19926;-72
2023/07/29 05:01:43;;;;;;;;;;;;;;;43.08;25.88;96511.84;6172247;28;19926;-72
2023/07/29 05:04:45;;;;;;;;;;;;;;;44.95;25.25;96502.91;6171500;28;19932;-72
2023/07/29 05:07:51;;;;;;;;;;;;;;;46.67;24.27;96509.81;6172079;28;19926;-72
2023/07/29 05:10:55;;;;;;;;;;;;;;;48.31;22.55;96508.91;6155056;28;19933;-72
2023/07/29 05:13:57;;;;;;;;;;;;;;;49.43;21.68;96504.41;6172108;28;19926;-72
2023/07/29 05:17:02;;;;;;;;;;;;;;;50.47;19.89;96502.03;6172157;28;19933;-72
2023/07/29 05:20:06;;;;;;;;;;;;;;;51.86;16.21;96497.34;6172668;28;19962;-73
2023/07/29 05:23:11;;;;;;;;;;;;;;;52.78;17.73;96497.00;6177620;28;19933;-73
2023/07/29 05:26:12;;;;;;;;;;;;;;;53.53;16.71;96502.56;6176719;28;19926;-72
2023/07/29 05:29:16;;;;;;;;;;;;;;;54.01;18.40;96486.44;6177160;28;20316;-72
2023/07/29 05:32:22;;;;;;;;;;;;;;;54.81;14.48;96501.69;6177308;28;20331;-72
2023/07/29 05:35:26;;;;;;;;;;;;;;;55.48;14.44;96492.53;6176806;28;19926;-72
2023/07/29 05:38:27;;;;;;;;;;;;;;;56.48;16.02;96500.84;6176875;28;20075;-71
2023/07/29 05:41:31;;;;;;;;;;;;;;;57.04;9.76;96498.13;6163598;28;19926;-72
2023/07/29 05:44:35;;;;;;;;;;;;;;;56.88;10.53;96503.47;6189640;28;19932;-72
2023/07/29 05:47:39;;;;;;;;;;;;;;;56.72;13.21;96491.88;6188754;28;19930;-72
2023/07/29 05:50:44;;;;;;;;;;;;;;;56.77;10.58;96492.25;6198273;28;19925;-72
2023/07/29 05:53:48;;;;;;;;;;;;;;;57.41;12.22;96493.03;6204692;28;19910;-72
2023/07/29 05:56:53;;;;;;;;;;;;;;;58.16;13.43;96498.81;6206586;28;19934;-72
2023/07/29 05:59:56;;;;;;;;;;;;;;;58.65;12.45;96493.75;6204384;28;19933;-72
2023/07/29 06:03:02;;;;;;;;;;;;;;;58.97;9.68;96495.38;6205602;28;20323;-72
2023/07/29 06:06:06;;;;;;;;;;;;;;;58.75;9.38;96488.38;6205584;28;19926;-72
2023/07/29 06:09:13;;;;;;;;;;;;;;;57.79;10.18;96480.59;6189017;28;19937;-72
2023/07/29 06:12:20;;;;;;;;;;;;;;;57.26;10.28;96483.88;6187838;28;19926;-73
2023/07/29 06:15:23;;;;;;;;;;;;;;;57.92;10.28;96488.53;6183951;28;19926;-71
2023/07/29 06:18:32;;;;;;;;;;;;;;;58.99;10.14;96487.25;6205461;28;20082;-72
2023/07/29 06:21:38;;;;;;;;;;;;;;;59.74;9.13;96494.53;6204925;28;19930;-71
2023/07/29 06:24:40;;;;;;;;;;;;;;;60.22;7.62;96498.13;6190193;28;19926;-72
2023/07/29 06:27:44;;;;;;;;;;;;;;;60.55;8.62;96490.53;6207841;28;20001;-72
2023/07/29 06:30:48;;;;;;;;;;;;;;;60.38;9.15;96491.72;6208601;28;19930;-72
2023/07/29 06:33:54;;;;;;;;;;;;;;;59.92;7.70;96484.91;6208450;28;19910;-72
2023/07/29 06:36:57;;;;;;;;;;;;;;;59.55;9.16;96479.03;6207561;28;19933;-71
2023/07/29 06:39:58;;;;;;;;;;;;;;;59.94;9.47;96477.56;6191689;28;19922;-72
2023/07/29 07:32:27;;;;;;;;;;;;;;;61.83;5.23;96442.34;6322560;23;19930;-71
2023/07/29 08:23:45;;;;;;;;;;;;;;;62.66;5.30;96403.69;6132702;28;19972;-73
2023/07/29 08:27:18;;;;;;;;;;;;;;;62.21;4.76;96411.19;6134767;29;19911;-71
2023/07/29 08:30:22;;;;;;;;;;;;;;;61.61;5.45;96391.72;6131125;29;19927;-72
2023/07/29 08:33:27;;;;;;;;;;;;;;;61.45;5.73;96389.69;6098891;29;19951;-72
2023/07/29 08:36:32;;;;;;;;;;;;;;;60.98;5.00;96377.88;6131202;29;19934;-72
2023/07/29 08:39:36;;;;;;;;;;;;;;;59.19;5.82;96364.56;6106924;29;19934;-72
2023/07/29 08:42:41;;;;;;;;;;;;;;;58.32;6.13;96353.72;6101921;29;19931;-72
2023/07/29 08:45:47;;;;;;;;;;;;;;;58.43;5.98;96353.59;6085336;29;19926;-72
2023/07/29 08:48:52;;;;;;;;;;;;;;;57.93;6.35;96342.94;6101438;29;19926;-73
2023/07/29 08:51:58;;;;;;;;;;;;;;;57.93;5.95;96342.94;6101481;29;19970;-73
2023/07/29 08:55:02;;;;;;;;;;;;;;;58.76;5.57;96342.59;6100480;29;19930;-73
2023/07/29 08:58:10;;;;;;;;;;;;;;;59.52;5.68;96348.56;6101238;29;19927;-72
2023/07/29 09:01:14;;;;;;;;;;;;;;;59.64;5.62;96349.97;6101266;29;19923;-73
2023/07/29 09:04:18;;;;;;;;;;;;;;;60.02;5.77;96341.09;6100843;29;20022;-73
2023/07/29 09:07:24;;;;;;;;;;;;;;;59.74;5.61;96343.25;6100693;29;19934;-73
2023/07/29 09:10:26;;;;;;;;;;;;;;;58.63;6.05;96337.47;6100661;29;19927;-73
2023/07/29 09:13:30;;;;;;;;;;;;;;;58.79;6.01;96336.84;6100538;29;20385;-73
2023/07/29 09:16:38;;;;;;;;;;;;;;;58.39;5.76;96333.03;6101061;29;20320;-72
2023/07/29 09:19:47;;;;;;;;;;;;;;;57.65;6.20;96327.88;6101066;29;19934;-73
2023/07/29 09:22:51;;;;;;;;;;;;;;;57.95;6.08;96320.66;6083495;29;19927;-74
2023/07/29 09:26:02;;;;;;;;;;;;;;;58.21;5.99;96325.59;6100561;29;19927;-74
2023/07/29 09:29:10;;;;;;;;;;;;;;;58.67;6.11;96334.66;6100323;29;19927;-73
2023/07/29 09:32:19;;;;;;;;;;;;;;;58.89;5.70;96335.88;6100711;29;19934;-73
2023/07/29 09:35:21;;;;;;;;;;;;;;;59.20;5.85;96315.91;6100030;29;19923;-72
2023/07/29 09:38:27;;;;;;;;;;;;;;;59.21;6.25;96322.38;6098983;29;19934;-73
2023/07/29 09:41:32;;;;;;;;;;;;;;;59.04;5.35;96327.94;6100183;29;19930;-74
2023/07/29 09:44:37;;;;;;;;;;;;;;;58.36;6.35;96314.03;6100111;29;19934;-73
2023/07/29 09:47:41;;;;;;;;;;;;;;;56.94;6.71;96311.63;6100516;29;19943;-73
2023/07/29 09:50:47;;;;;;;;;;;;;;;56.00;7.19;96295.31;6100494;29;20389;-72
2023/07/29 09:53:50;;;;;;;;;;;;;;;55.89;7.01;96294.53;6100574;29;20425;-72
2023/07/29 09:56:54;;;;;;;;;;;;;;;56.34;7.08;96289.06;6100261;29;19927;-72
2023/07/29 09:59:56;;;;;;;;;;;;;;;55.43;7.24;96289.06;6100135;29;19950;-73
2023/07/29 10:03:01;;;;;;;;;;;;;;;54.99;7.28;96287.53;6100533;29;19927;-73
2023/07/29 10:06:04;;;;;;;;;;;;;;;55.52;6.99;96286.59;6100657;29;19927;-73
2023/07/29 10:09:10;;;;;;;;;;;;;;;54.98;7.06;96277.47;6104804;29;20070;-73
2023/07/29 10:12:13;;;;;;;;;;;;;;;54.63;7.68;96277.03;6104936;29;20226;-72
2023/07/29 10:15:17;;;;;;;;;;;;;;;53.73;7.73;96280.88;6104587;29;20119;-73
2023/07/29 10:18:22;;;;;;;;;;;;;;;53.72;8.00;96280.06;6104426;29;20307;-72
2023/07/29 10:21:25;;;;;;;;;;;;;;;52.72;8.48;96273.81;6103810;29;19927;-72
2023/07/29 10:24:33;;;;;;;;;;;;;;;51.60;9.14;96277.41;6104446;29;19927;-73
2023/07/29 10:27:41;;;;;;;;;;;;;;;51.03;9.10;96282.22;6103045;29;19927;-73
2023/07/29 10:30:45;;;;;;;;;;;;;;;51.51;8.92;96288.09;6104119;29;20377;-72
2023/07/29 10:33:47;;;;;;;;;;;;;;;52.25;8.59;96278.16;6104320;29;20010;-72
2023/07/29 10:36:50;;;;;;;;;;;;;;;51.94;8.86;96274.59;6087613;29;20305;-72
2023/07/29 10:39:53;;;;;;;;;;;;;;;51.80;8.84;96274.44;6104054;29;19955;-72
2023/07/29 10:43:02;;;;;;;;;;;;;;;51.06;9.28;96270.25;6104142;29;20472;-72
2023/07/29 10:46:17;;;;;;;;;;;;;;;49.65;9.92;96273.69;6104049;29;20464;-72
2023/07/29 10:49:23;;;;;;;;;;;;;;;48.80;10.16;96276.13;6103774;29;20026;-72
2023/07/29 10:52:34;;;;;;;;;;;;;;;48.41;10.80;96264.78;6103849;29;19949;-72
2023/07/29 10:55:38;;;;;;;;;;;;;;;48.86;10.51;96277.47;6103984;29;19933;-72
2023/07/29 10:58:43;;;;;;;;;;;;;;;48.83;10.62;96272.63;6103585;29;20362;-72
2023/07/29 11:01:54;;;;;;;;;;;;;;;49.08;10.26;96278.00;6103856;29;19927;-72
2023/07/29 11:04:59;;;;;;;;;;;;;;;49.32;10.16;96275.00;6103737;29;20014;-72
2023/07/29 11:08:15;;;;;;;;;;;;;;;49.50;10.10;96272.56;6103543;29;19931;-72
2023/07/29 11:11:18;;;;;;;;;;;;;;;49.61;10.03;96276.41;6086661;29;19934;-73
2023/07/29 11:14:22;;;;;;;;;;;;;;;49.78;10.07;96275.16;6086595;29;19958;-73
2023/07/29 11:17:26;;;;;;;;;;;;;;;49.89;9.79;96269.78;6103136;29;20373;-72
2023/07/29 11:20:30;;;;;;;;;;;;;;;49.81;10.08;96263.22;6102614;29;20369;-72
2023/07/29 11:23:34;;;;;;;;;;;;;;;49.55;10.24;96265.88;6103277;29;19938;-72
2023/07/29 11:26:46;;;;;;;;;;;;;;;49.32;10.42;96266.59;6103193;29;19975;-73
2023/07/29 11:29:50;;;;;;;;;;;;;;;49.02;10.56;96254.31;6103161;29;19926;-73
2023/07/29 11:32:54;;;;;;;;;;;;;;;48.42;10.98;96255.25;6103205;29;20423;-72
2023/07/29 11:35:58;;;;;;;;;;;;;;;47.63;11.47;96247.53;6103111;29;19927;-72
2023/07/29 11:39:00;;;;;;;;;;;;;;;46.54;11.82;96235.38;6102769;29;20025;-72
2023/07/29 11:42:03;;;;;;;;;;;;;;;46.21;12.14;96232.69;6102383;29;19931;-72
2023/07/29 11:45:06;;;;;;;;;;;;;;;46.05;12.17;96229.75;6086111;29;19926;-72
2023/07/29 11:48:10;;;;;;;;;;;;;;;46.06;12.08;96228.59;6102700;29;19927;-72
2023/07/29 11:51:14;;;;;;;;;;;;;;;45.87;12.33;96235.50;6102537;29;19931;-73
2023/07/29 11:54:21;;;;;;;;;;;;;;;45.77;12.48;96238.69;6101266;29;20405;-72
2023/07/29 11:57:24;;;;;;;;;;;;;;;45.63;12.36;96229.84;6096968;29;19974;-72
2023/07/29 12:00:27;;;;;;;;;;;;;;;45.41;12.50;96234.63;6102066;29;19927;-73
2023/07/29 12:03:30;;;;;;;;;;;;;;;45.09;12.70;96222.25;6102371;29;20025;-72
2023/07/29 12:06:33;;;;;;;;;;;;;;;44.69;13.02;96227.41;6102130;29;19927;-72
2023/07/29 12:09:37;;;;;;;;;;;;;;;44.55;13.28;96225.69;6085767;29;20342;-71
2023/07/29 12:12:47;;;;;;;;;;;;;;;44.43;13.41;96231.13;6102083;29;19923;-72
2023/07/29 12:15:48;;;;;;;;;;;;;;;43.96;13.64;96224.78;6101648;29;19934;-72
2023/07/29 12:18:54;;;;;;;;;;;;;;;43.45;13.71;96227.25;6101853;29;19927;-72
2023/07/29 12:21:55;;;;;;;;;;;;;;;43.32;13.89;96222.72;6101201;29;19927;-73
2023/07/29 12:24:59;;;;;;;;;;;;;;;43.34;13.64;96225.94;6101833;29;20322;-73
2023/07/29 12:28:03;;;;;;;;;;;;;;;43.14;14.18;96211.63;6101641;29;19950;-73
2023/07/29 12:31:08;;;;;;;;;;;;;;;42.92;14.06;96208.97;6101499;29;19927;-73
2023/07/29 12:34:09;;;;;;;;;;;;;;;42.81;13.89;96209.31;6101341;29;19927;-73
2023/07/29 12:37:12;;;;;;;;;;;;;;;42.51;14.19;96204.66;6101585;29;19978;-73
2023/07/29 12:40:23;;;;;;;;;;;;;;;42.05;14.57;96203.16;6101433;29;19927;-73
2023/07/29 12:43:25;;;;;;;;;;;;;;;41.88;15.02;96193.63;6100621;29;19926;-72
2023/07/29 12:46:30;;;;;;;;;;;;;;;41.67;15.19;96203.56;6101406;29;19927;-72
2023/07/29 12:49:32;;;;;;;;;;;;;;;41.37;15.08;96200.44;6084142;29;20360;-72
2023/07/29 12:52:37;;;;;;;;;;;;;;;41.06;15.30;96200.34;6101157;29;19927;-72
2023/07/29 12:55:40;;;;;;;;;;;;;;;40.46;15.70;96198.59;6101095;29;19927;-73
2023/07/29 12:58:41;;;;;;;;;;;;;;;40.02;16.02;96196.41;6100935;29;20429;-72
2023/07/29 13:01:42;;;;;;;;;;;;;;;39.79;16.02;96184.47;6100756;29;19970;-73
2023/07/29 13:04:45;;;;;;;;;;;;;;;39.45;16.21;96191.06;6100933;29;20394;-72
2023/07/29 13:07:49;;;;;;;;;;;;;;;39.11;16.66;96186.63;6101084;29;20510;-72
2023/07/29 13:10:52;;;;;;;;;;;;;;;38.81;16.73;96194.22;6100936;29;20423;-72
2023/07/29 13:13:55;;;;;;;;;;;;;;;38.64;16.85;96193.88;6093184;29;20389;-71
2023/07/29 13:17:00;;;;;;;;;;;;;;;38.39;17.10;96193.09;6100996;29;19927;-72
2023/07/29 13:20:03;;;;;;;;;;;;;;;38.11;17.34;96194.00;6083552;29;20513;-72
2023/07/29 13:23:06;;;;;;;;;;;;;;;37.79;17.22;96195.38;6100846;29;20398;-73
2023/07/29 13:26:11;;;;;;;;;;;;;;;37.59;17.41;96190.09;6100862;29;19927;-72
2023/07/29 13:29:13;;;;;;;;;;;;;;;37.35;17.89;96190.81;6100751;29;19930;-74
2023/07/29 13:32:17;;;;;;;;;;;;;;;37.15;17.83;96185.50;6100919;29;19927;-74
2023/07/29 13:35:20;;;;;;;;;;;;;;;36.95;18.16;96187.25;6100737;29;19927;-74
2023/07/29 13:38:23;;;;;;;;;;;;;;;36.77;18.33;96185.19;6100761;29;19978;-73
2023/07/29 13:41:27;;;;;;;;;;;;;;;36.66;17.93;96189.09;6101492;29;19927;-73
2023/07/29 13:44:31;;;;;;;;;;;;;;;36.59;18.08;96187.47;6105203;29;20017;-73
2023/07/29 13:47:35;;;;;;;;;;;;;;;36.37;19.11;96197.97;6105294;29;19935;-72
2023/07/29 13:50:37;;;;;;;;;;;;;;;36.03;19.16;96195.88;6105254;29;20344;-73
2023/07/29 13:53:41;;;;;;;;;;;;;;;35.73;20.98;96203.06;6105246;29;20460;-73
2023/07/29 13:56:43;;;;;;;;;;;;;;;35.34;21.54;96201.97;6105123;29;20382;-73
2023/07/29 13:59:47;;;;;;;;;;;;;;;35.04;22.74;96198.09;6088188;29;20305;-73
2023/07/29 14:02:51;;;;;;;;;;;;;;;34.45;23.42;96193.00;6104818;29;20389;-73
2023/07/29 14:05:54;;;;;;;;;;;;;;;34.29;24.12;96197.59;6104473;29;19927;-74
2023/07/29 14:08:58;;;;;;;;;;;;;;;34.09;24.44;96199.16;6072359;29;20213;-73
2023/07/29 14:12:01;;;;;;;;;;;;;;;33.96;24.94;96200.41;6104425;29;19933;-73
2023/07/29 14:15:06;;;;;;;;;;;;;;;33.87;25.56;96202.00;6104411;29;19998;-72
2023/07/29 14:18:08;;;;;;;;;;;;;;;33.46;25.73;96198.13;6103260;29;19927;-72
2023/07/29 14:21:12;;;;;;;;;;;;;;;33.30;25.84;96197.22;6104071;29;19933;-74
2023/07/29 14:24:16;;;;;;;;;;;;;;;33.19;25.77;96195.47;6104262;29;19931;-73
2023/07/29 14:27:20;;;;;;;;;;;;;;;33.17;26.19;96192.19;6104256;29;20321;-72
2023/07/29 14:30:23;;;;;;;;;;;;;;;32.97;26.25;96201.78;6104004;29;19931;-73
2023/07/29 14:33:26;;;;;;;;;;;;;;;32.93;26.63;96203.41;6104051;29;20029;-73
2023/07/29 14:36:29;;;;;;;;;;;;;;;32.78;26.80;96195.06;6103665;29;20025;-73
2023/07/29 14:39:33;;;;;;;;;;;;;;;32.61;27.55;96196.00;6104165;29;19934;-73
2023/07/29 14:42:35;;;;;;;;;;;;;;;32.43;27.89;96193.56;6103826;29;19934;-72
2023/07/29 14:45:38;;;;;;;;;;;;;;;32.24;27.90;96192.25;6103573;29;19978;-72
2023/07/29 14:48:41;;;;;;;;;;;;;;;32.13;28.28;96197.56;6103802;29;20317;-72
2023/07/29 14:51:44;;;;;;;;;;;;;;;32.06;28.47;96202.38;6103715;29;20393;-73
2023/07/29 14:54:47;;;;;;;;;;;;;;;31.84;29.35;96202.31;6102560;29;20293;-72
2023/07/29 14:57:50;;;;;;;;;;;;;;;31.60;29.91;96204.41;6103426;29;20301;-72
2023/07/29 15:00:53;;;;;;;;;;;;;;;31.58;30.23;96203.84;6086707;29;19931;-72
2023/07/29 15:03:56;;;;;;;;;;;;;;;31.45;30.68;96205.00;6103712;29;20021;-72
2023/07/29 15:07:00;;;;;;;;;;;;;;;31.27;31.01;96208.75;6103409;29;19927;-72
2023/07/29 15:10:02;;;;;;;;;;;;;;;31.27;31.27;96207.94;6103649;29;19934;-72
2023/07/29 15:13:07;;;;;;;;;;;;;;;30.91;31.59;96209.22;6103448;29;20070;-72
2023/07/29 15:16:11;;;;;;;;;;;;;;;30.61;32.00;96213.81;6103496;29;19933;-71
2023/07/29 15:19:14;;;;;;;;;;;;;;;30.35;32.33;96206.25;6103033;29;20029;-71
2023/07/29 15:22:17;;;;;;;;;;;;;;;30.14;32.43;96205.78;6103115;29;19938;-72
2023/07/29 15:25:19;;;;;;;;;;;;;;;30.22;32.46;96207.34;6102939;29;19927;-73
2023/07/29 15:28:22;;;;;;;;;;;;;;;29.99;33.13;96213.59;6103014;29;20312;-71
2023/07/29 15:31:25;;;;;;;;;;;;;;;29.95;33.62;96212.41;6102966;29;19930;-72
2023/07/29 15:34:31;;;;;;;;;;;;;;;29.68;33.29;96225.66;6102893;29;20400;-72
2023/07/29 15:37:33;;;;;;;;;;;;;;;29.50;33.36;96221.97;6086415;29;19966;-73
2023/07/29 15:40:37;;;;;;;;;;;;;;;29.54;33.75;96222.31;6085904;29;19934;-72
2023/07/29 15:43:41;;;;;;;;;;;;;;;29.45;34.20;96213.72;6102308;29;20034;-72
2023/07/29 15:46:45;;;;;;;;;;;;;;;29.20;34.02;96226.66;6070040;29;19927;-72
2023/07/29 15:49:47;;;;;;;;;;;;;;;29.05;34.46;96218.97;6102509;29;19927;-72
2023/07/29 15:52:51;;;;;;;;;;;;;;;28.92;34.00;96219.94;6102650;29;20013;-72
2023/07/29 15:55:54;;;;;;;;;;;;;;;28.84;34.52;96225.69;6085735;29;19926;-72
2023/07/29 15:58:58;;;;;;;;;;;;;;;28.78;34.93;96229.31;6102248;29;19927;-72
2023/07/29 16:02:01;;;;;;;;;;;;;;;28.59;34.73;96221.28;6109624;29;20394;-73
2023/07/29 16:05:06;;;;;;;;;;;;;;;28.49;35.31;96231.81;6084865;29;20494;-73
2023/07/29 16:08:09;;;;;;;;;;;;;;;28.32;34.98;96228.03;6102028;29;19927;-72
2023/07/29 16:11:12;;;;;;;;;;;;;;;28.16;35.61;96237.59;6102032;29;20014;-72
2023/07/29 16:14:15;;;;;;;;;;;;;;;28.01;35.55;96245.25;6101933;29;19926;-71
2023/07/29 16:17:19;;;;;;;;;;;;;;;27.97;35.53;96239.47;6085247;29;19927;-72
2023/07/29 16:20:22;;;;;;;;;;;;;;;27.86;36.11;96237.50;6101577;29;19986;-72
2023/07/29 16:23:25;;;;;;;;;;;;;;;27.72;36.02;96237.59;6101732;29;19927;-72
2023/07/29 16:26:28;;;;;;;;;;;;;;;27.66;36.01;96248.50;6101707;29;19933;-73
2023/07/29 16:29:31;;;;;;;;;;;;;;;27.56;35.77;96242.75;6084868;29;19927;-72
2023/07/29 16:32:34;;;;;;;;;;;;;;;27.47;35.82;96239.50;6102058;29;19923;-72
2023/07/29 16:35:37;;;;;;;;;;;;;;;27.47;35.25;96239.50;6101502;29;19926;-72
2023/07/29 16:38:40;;;;;;;;;;;;;;;27.41;36.01;96243.09;6101655;29;19928;-72
2023/07/29 16:41:43;;;;;;;;;;;;;;;27.31;35.88;96248.97;6084487;29;20380;-72
2023/07/29 16:44:47;;;;;;;;;;;;;;;27.19;36.04;96248.06;6101251;29;19970;-72
2023/07/29 16:47:50;;;;;;;;;;;;;;;27.08;36.33;96255.78;6084726;29;19934;-71
2023/07/29 16:50:54;;;;;;;;;;;;;;;26.98;36.67;96254.63;6101300;29;20022;-72
2023/07/29 16:53:58;;;;;;;;;;;;;;;26.87;37.08;96253.44;6101213;29;20018;-72
2023/07/29 16:57:01;;;;;;;;;;;;;;;26.76;37.06;96262.22;6101379;29;19927;-72
2023/07/29 17:00:04;;;;;;;;;;;;;;;26.65;37.65;96266.41;6101038;29;20308;-72
2023/07/29 17:03:09;;;;;;;;;;;;;;;26.53;37.97;96262.75;6101341;29;19927;-71
2023/07/29 17:06:12;;;;;;;;;;;;;;;26.43;39.21;96277.47;6101029;29;19927;-72
2023/07/29 17:09:15;;;;;;;;;;;;;;;26.33;38.81;96282.50;6100882;29;19931;-71
2023/07/29 17:12:19;;;;;;;;;;;;;;;26.23;39.02;96275.91;6101193;29;19926;-73
2023/07/29 17:15:22;;;;;;;;;;;;;;;26.12;37.83;96274.69;6083857;29;19927;-72
2023/07/29 17:18:26;;;;;;;;;;;;;;;26.02;38.78;96277.00;6100509;29;19995;-72
2023/07/29 17:21:29;;;;;;;;;;;;;;;25.90;39.48;96283.06;6100471;29;19927;-72
2023/07/29 17:24:32;;;;;;;;;;;;;;;25.82;39.18;96272.47;6100771;29;19934;-72
2023/07/29 17:27:36;;;;;;;;;;;;;;;25.76;39.67;96282.22;6084016;29;19927;-72
2023/07/29 17:30:39;;;;;;;;;;;;;;;25.65;39.91;96287.41;6083161;29;19927;-71
2023/07/29 17:33:43;;;;;;;;;;;;;;;25.56;39.66;96285.94;6100361;29;19927;-70
2023/07/29 17:36:47;;;;;;;;;;;;;;;25.50;38.96;96283.03;6100991;29;19927;-72